Terminal Aerodrome Forecast
Issued by NWS

Home | Current Version | Previous Version | Graphics & Text | Print | Product List | Glossary On
Versions: 1 2 3 4 5 6 7 8 9 10 11 12 13 14 15
830
FTUS43 KGRB 090520
TAFAUW
TAF
KAUW 090520Z 0906/1006 33010KT 6SM -SN OVC021
      TEMPO 0906/0910 3SM -SN OVC017
     FM091000 32012KT 6SM -SN BR SCT015 OVC040
      TEMPO 0910/0914 5SM -SN BR OVC015
     FM091400 32012G20KT P6SM OVC025
     FM100000 32012KT P6SM OVC050=

USA.gov is the U.S. government's official web portal to all federal, state and local government web resources and services.